createdAt,value
2022-07-31T00:00:38.757Z,0.80
2022-07-31T00:03:06.702Z,0.50
2022-07-31T00:05:41.535Z,0.65
2022-07-31T00:08:10.726Z,0.65
2022-07-31T00:10:38.903Z,0.70
2022-07-31T00:13:08.166Z,0.50
2022-07-31T00:15:38.424Z,0.52
2022-07-31T00:18:06.440Z,0.60
2022-07-31T00:20:34.453Z,0.55
2022-07-31T00:23:02.514Z,0.70
2022-07-31T00:25:30.760Z,0.60
2022-07-31T00:27:58.855Z,0.70
2022-07-31T00:30:28.178Z,0.70
2022-07-31T00:32:56.113Z,0.70
2022-07-31T00:35:24.079Z,0.85
2022-07-31T00:37:54.763Z,0.60
2022-07-31T00:40:30.287Z,0.52
2022-07-31T00:42:58.563Z,0.63
2022-07-31T00:45:29.245Z,0.50
2022-07-31T00:47:59.946Z,0.55
2022-07-31T00:50:28.788Z,0.57
2022-07-31T00:52:56.670Z,0.82
2022-07-31T00:55:25.568Z,0.60
2022-07-31T00:57:53.599Z,0.70
2022-07-31T01:00:22.942Z,0.90
2022-07-31T01:02:52.149Z,0.50
2022-07-31T01:05:19.978Z,0.45
2022-07-31T01:07:48.828Z,0.60
2022-07-31T01:10:26.795Z,0.65
2022-07-31T01:13:00.183Z,0.50
2022-07-31T01:15:29.074Z,0.70
2022-07-31T01:17:59.407Z,0.60
2022-07-31T01:20:29.187Z,0.77
2022-07-31T01:23:29.903Z,0.50
2022-07-31T01:26:04.270Z,0.60
2022-07-31T01:29:01.640Z,0.52
2022-07-31T01:31:37.021Z,0.60
2022-07-31T01:34:09.712Z,0.55
2022-07-31T01:36:43.009Z,0.60
2022-07-31T01:39:11.180Z,0.57
2022-07-31T01:41:42.289Z,0.43
2022-07-31T01:44:14.593Z,0.60
2022-07-31T01:46:44.626Z,0.85
2022-07-31T01:49:14.149Z,0.53
2022-07-31T01:51:44.698Z,0.50
2022-07-31T01:54:13.921Z,0.60
2022-07-31T01:56:43.106Z,0.50
2022-07-31T01:59:22.586Z,0.70
2022-07-31T02:01:54.064Z,0.52
2022-07-31T02:04:23.361Z,0.40
2022-07-31T02:06:52.098Z,0.60
2022-07-31T02:09:22.105Z,0.73
2022-07-31T02:11:54.844Z,0.70
2022-07-31T02:14:25.198Z,0.57
2022-07-31T02:16:53.573Z,0.77
2022-07-31T02:19:23.347Z,0.47
2022-07-31T02:21:51.341Z,0.73
2022-07-31T02:24:19.692Z,0.65
2022-07-31T02:26:48.780Z,0.52
2022-07-31T02:29:19.414Z,0.60
2022-07-31T02:32:03.163Z,0.60
2022-07-31T02:34:33.344Z,0.50
2022-07-31T02:37:02.543Z,0.63
2022-07-31T02:39:32.166Z,0.52
2022-07-31T02:42:02.556Z,0.68
2022-07-31T02:44:34.613Z,1.00
2022-07-31T02:47:05.255Z,0.55
2022-07-31T02:49:34.466Z,0.57
2022-07-31T02:52:04.440Z,0.90
2022-07-31T02:54:33.075Z,0.55
2022-07-31T02:57:03.075Z,0.68
2022-07-31T02:59:30.950Z,0.63
2022-07-31T03:01:58.812Z,0.70
2022-07-31T03:04:27.995Z,0.77
2022-07-31T03:06:55.901Z,0.55
2022-07-31T03:09:23.879Z,0.90
2022-07-31T03:11:52.078Z,0.68
2022-07-31T03:14:20.058Z,0.60
2022-07-31T03:16:49.406Z,0.70
2022-07-31T03:19:17.603Z,0.70
2022-07-31T03:21:47.367Z,0.75
2022-07-31T03:24:15.462Z,0.63
2022-07-31T03:26:43.587Z,0.60
2022-07-31T03:29:39.005Z,0.52
2022-07-31T03:31:59.386Z,0.70
2022-07-31T03:34:27.378Z,0.60
2022-07-31T03:36:56.558Z,0.70
2022-07-31T03:39:24.466Z,0.70
2022-07-31T03:41:53.218Z,0.88
2022-07-31T03:44:21.801Z,0.77
2022-07-31T03:46:50.029Z,0.80
2022-07-31T03:49:18.374Z,0.70
2022-07-31T03:51:46.506Z,0.50
2022-07-31T03:54:15.979Z,0.85
2022-07-31T03:56:47.388Z,0.80
2022-07-31T03:59:17.650Z,0.80
2022-07-31T04:02:10.552Z,0.80
2022-07-31T04:04:34.118Z,0.65
2022-07-31T04:07:01.974Z,0.47
2022-07-31T04:09:32.362Z,0.80
2022-07-31T04:12:00.502Z,0.65
2022-07-31T04:14:28.506Z,0.70
2022-07-31T04:16:56.405Z,0.77
2022-07-31T04:19:24.254Z,0.70
2022-07-31T04:21:52.092Z,0.70
2022-07-31T04:24:21.685Z,0.82
2022-07-31T04:26:51.678Z,0.73
2022-07-31T04:29:19.806Z,0.60
2022-07-31T04:31:47.714Z,0.52
2022-07-31T04:34:15.635Z,0.63
2022-07-31T04:36:43.514Z,0.80
2022-07-31T04:39:11.389Z,0.80
2022-07-31T04:41:39.785Z,0.73
2022-07-31T04:44:08.967Z,0.70
2022-07-31T04:46:36.905Z,0.70
2022-07-31T04:49:04.914Z,0.70
2022-07-31T04:51:32.937Z,0.55
2022-07-31T04:54:00.870Z,0.70
2022-07-31T04:56:36.136Z,0.55
2022-07-31T04:59:05.793Z,0.63
2022-07-31T05:01:35.554Z,0.77
2022-07-31T05:04:03.607Z,0.52
2022-07-31T05:06:39.552Z,0.70
2022-07-31T05:09:10.734Z,0.65
2022-07-31T05:11:42.719Z,0.65
2022-07-31T05:14:12.039Z,0.60
2022-07-31T05:16:41.884Z,0.73
2022-07-31T05:19:14.451Z,1.08
2022-07-31T05:21:53.217Z,0.80
2022-07-31T05:24:32.708Z,0.68
2022-07-31T05:27:01.896Z,0.83
2022-07-31T05:29:30.276Z,0.60
2022-07-31T05:32:01.004Z,0.80
2022-07-31T05:34:30.625Z,0.70
2022-07-31T05:37:00.867Z,0.70
2022-07-31T05:39:28.902Z,0.65
2022-07-31T05:41:56.781Z,0.60
2022-07-31T05:44:24.890Z,0.68
2022-07-31T05:49:22.230Z,0.70
2022-07-31T05:51:54.019Z,0.73
2022-07-31T05:54:22.141Z,0.70
2022-07-31T05:56:50.003Z,0.60
2022-07-31T05:59:17.949Z,0.52
2022-07-31T06:01:46.462Z,0.55
2022-07-31T06:04:14.417Z,0.60
2022-07-31T06:06:43.570Z,0.65
2022-07-31T06:09:11.662Z,0.70
2022-07-31T06:11:39.603Z,0.90
2022-07-31T06:14:08.185Z,0.70
2022-07-31T06:16:36.103Z,0.70
2022-07-31T06:19:03.958Z,0.60
2022-07-31T06:21:31.834Z,0.75
2022-07-31T06:24:01.154Z,0.70
2022-07-31T06:26:30.217Z,0.80
2022-07-31T06:28:58.123Z,0.80
2022-07-31T06:31:25.994Z,0.70
2022-07-31T06:33:53.884Z,1.05
2022-07-31T06:36:21.814Z,0.75
2022-07-31T06:38:49.707Z,0.68
2022-07-31T06:41:32.880Z,0.70
2022-07-31T06:44:00.771Z,0.60
2022-07-31T06:46:28.645Z,0.85
2022-07-31T06:48:56.624Z,0.73
2022-07-31T06:51:32.300Z,0.45
2022-07-31T06:54:00.714Z,0.57
2022-07-31T06:56:30.238Z,0.70
2022-07-31T06:58:58.153Z,0.60
2022-07-31T07:01:26.461Z,0.50
2022-07-31T07:03:54.549Z,0.50
2022-07-31T07:06:22.798Z,0.63
2022-07-31T07:08:50.848Z,0.55
2022-07-31T07:11:19.117Z,0.63
2022-07-31T07:13:48.376Z,0.50
2022-07-31T07:16:16.628Z,0.52
2022-07-31T07:18:44.995Z,0.52
2022-07-31T07:21:13.186Z,0.70
2022-07-31T07:23:41.373Z,0.60
2022-07-31T07:26:09.383Z,0.50
2022-07-31T07:28:37.343Z,0.60
2022-07-31T07:31:07.165Z,0.63
2022-07-31T07:33:39.770Z,0.70
2022-07-31T07:36:22.623Z,0.40
2022-07-31T07:38:51.556Z,0.57
2022-07-31T07:41:19.435Z,0.65
2022-07-31T07:43:51.613Z,0.65
2022-07-31T07:46:22.395Z,0.60
2022-07-31T07:48:51.592Z,0.52
2022-07-31T07:51:19.955Z,0.50
2022-07-31T07:53:48.114Z,0.70
2022-07-31T07:56:16.473Z,0.73
2022-07-31T07:58:44.410Z,0.60
2022-07-31T08:01:12.603Z,0.60
2022-07-31T08:03:50.772Z,1.30
2022-07-31T08:06:21.171Z,1.10
2022-07-31T08:08:49.257Z,0.75
2022-07-31T08:11:17.983Z,0.63
2022-07-31T08:13:51.228Z,0.75
2022-07-31T08:16:20.583Z,0.60
2022-07-31T08:18:51.425Z,0.80
2022-07-31T08:21:19.343Z,1.02
2022-07-31T08:23:47.366Z,0.80
2022-07-31T08:26:15.288Z,0.75
2022-07-31T08:28:50.576Z,0.70
2022-07-31T08:31:19.791Z,0.70
2022-07-31T08:33:49.040Z,0.50
2022-07-31T08:36:16.967Z,0.57
2022-07-31T08:38:45.071Z,0.73
2022-07-31T08:41:14.894Z,0.63
2022-07-31T08:43:59.964Z,0.50
2022-07-31T08:46:32.182Z,0.65
2022-07-31T08:49:03.794Z,0.60
2022-07-31T08:51:51.029Z,0.60
2022-07-31T08:54:21.611Z,0.70
2022-07-31T08:56:52.380Z,0.80
2022-07-31T08:59:22.025Z,0.50
2022-07-31T09:01:51.261Z,0.60
2022-07-31T09:04:20.501Z,0.47
2022-07-31T09:06:48.375Z,0.30
2022-07-31T09:09:16.849Z,0.55
2022-07-31T09:11:48.597Z,0.50
2022-07-31T09:14:26.478Z,0.88
2022-07-31T09:16:54.646Z,0.65
2022-07-31T09:19:51.106Z,0.60
2022-07-31T09:22:21.837Z,0.68
2022-07-31T09:24:49.796Z,0.40
2022-07-31T09:27:18.254Z,0.73
2022-07-31T09:29:49.067Z,0.65
2022-07-31T09:36:00.717Z,0.40
2022-07-31T09:38:33.829Z,0.47
2022-07-31T09:41:16.637Z,0.50
2022-07-31T09:44:02.594Z,0.30
2022-07-31T09:46:40.921Z,0.40
2022-07-31T09:49:09.046Z,0.40
2022-07-31T09:51:42.330Z,0.63
2022-07-31T09:54:21.012Z,0.30
2022-07-31T09:56:50.081Z,0.60
2022-07-31T09:59:18.247Z,0.68
2022-07-31T10:01:49.380Z,0.70
2022-07-31T10:04:18.741Z,0.50
2022-07-31T10:06:50.038Z,0.40
2022-07-31T10:09:20.018Z,0.38
2022-07-31T10:11:49.088Z,0.33
2022-07-31T10:14:22.068Z,0.50
2022-07-31T10:16:53.132Z,0.50
2022-07-31T10:19:22.605Z,0.47
2022-07-31T10:21:57.536Z,0.55
2022-07-31T10:24:29.510Z,0.43
2022-07-31T10:27:10.414Z,0.50
2022-07-31T10:29:40.134Z,0.32
2022-07-31T10:32:09.223Z,0.40
2022-07-31T10:34:37.649Z,0.47
2022-07-31T10:37:12.746Z,0.43
2022-07-31T10:39:50.102Z,0.50
2022-07-31T10:42:29.892Z,0.52
2022-07-31T10:45:06.484Z,0.30
2022-07-31T10:47:34.402Z,0.35
2022-07-31T10:50:02.595Z,0.40
2022-07-31T10:52:33.306Z,0.47
2022-07-31T10:57:32.171Z,0.30
2022-07-31T11:00:11.779Z,0.45
2022-07-31T11:02:39.810Z,0.50
2022-07-31T11:05:09.350Z,0.60
2022-07-31T11:07:39.071Z,0.40
2022-07-31T11:10:15.375Z,0.40
2022-07-31T11:12:43.553Z,0.50
2022-07-31T11:15:22.741Z,0.40
2022-07-31T11:18:20.679Z,0.45
2022-07-31T11:20:39.183Z,0.40
2022-07-31T11:23:10.017Z,0.30
2022-07-31T11:25:38.954Z,0.57
2022-07-31T11:28:18.791Z,0.40
2022-07-31T11:30:51.634Z,0.50
2022-07-31T11:33:41.750Z,0.55
2022-07-31T11:36:12.406Z,0.45
2022-07-31T11:38:44.780Z,0.50
2022-07-31T11:41:15.838Z,0.40
2022-07-31T11:43:48.293Z,0.50
2022-07-31T11:46:25.842Z,0.57
2022-07-31T11:48:54.436Z,0.52
2022-07-31T11:51:22.961Z,0.50
2022-07-31T11:53:57.302Z,0.35
2022-07-31T11:56:27.722Z,0.40
2022-07-31T11:58:57.611Z,0.43
2022-07-31T12:01:28.311Z,0.35
2022-07-31T12:06:25.123Z,0.40
2022-07-31T12:08:54.695Z,0.40
2022-07-31T12:11:23.079Z,0.60
2022-07-31T12:13:51.914Z,0.50
2022-07-31T12:16:19.901Z,0.52
2022-07-31T12:18:49.532Z,0.30
2022-07-31T12:21:19.115Z,0.57
2022-07-31T12:23:49.047Z,0.50
2022-07-31T12:26:25.648Z,0.40
2022-07-31T12:29:01.008Z,0.40
2022-07-31T12:31:30.508Z,0.60
2022-07-31T12:33:58.509Z,0.47
2022-07-31T12:36:27.254Z,0.20
2022-07-31T12:39:02.444Z,0.43
2022-07-31T12:41:32.258Z,0.30
2022-07-31T12:44:10.953Z,0.40
2022-07-31T12:46:41.495Z,0.38
2022-07-31T12:49:09.774Z,0.52
2022-07-31T12:51:45.605Z,0.45
2022-07-31T12:54:15.613Z,0.50
2022-07-31T12:56:46.708Z,0.30
2022-07-31T12:59:15.257Z,0.55
2022-07-31T13:01:43.674Z,0.40
2022-07-31T13:04:18.859Z,0.45
2022-07-31T13:06:51.044Z,0.40
2022-07-31T13:09:19.627Z,0.30
2022-07-31T13:11:51.222Z,0.40
2022-07-31T13:14:23.419Z,0.50
2022-07-31T13:16:52.664Z,0.60
2022-07-31T13:19:20.940Z,0.60
2022-07-31T13:21:50.361Z,0.50
2022-07-31T13:24:19.473Z,0.40
2022-07-31T13:26:48.997Z,0.40
2022-07-31T13:29:17.372Z,0.40
2022-07-31T13:31:45.623Z,0.38
2022-07-31T13:34:13.818Z,0.50
2022-07-31T13:36:41.781Z,0.60
2022-07-31T13:39:09.961Z,0.30
2022-07-31T13:41:38.949Z,0.50
2022-07-31T13:44:09.510Z,0.40
2022-07-31T13:46:38.060Z,0.50
2022-07-31T13:49:08.907Z,0.57
2022-07-31T13:51:37.298Z,0.60
2022-07-31T13:54:05.536Z,0.50
2022-07-31T13:56:38.598Z,0.50
2022-07-31T13:59:12.728Z,0.32
2022-07-31T14:02:04.059Z,0.30
2022-07-31T14:04:31.251Z,0.40
2022-07-31T14:07:01.386Z,0.40
2022-07-31T14:09:34.052Z,0.40
2022-07-31T14:12:04.259Z,0.30
2022-07-31T14:14:34.294Z,0.50
2022-07-31T14:17:02.238Z,0.50
2022-07-31T14:19:30.170Z,0.40
2022-07-31T14:22:11.326Z,0.70
2022-07-31T14:24:40.809Z,0.38
2022-07-31T14:27:08.796Z,0.52
2022-07-31T14:29:38.333Z,0.50
2022-07-31T14:32:07.120Z,0.30
2022-07-31T14:34:36.075Z,0.20
2022-07-31T14:37:04.686Z,0.40
2022-07-31T14:39:32.866Z,0.30
2022-07-31T14:42:00.847Z,0.40
2022-07-31T14:44:29.201Z,0.40
2022-07-31T14:46:58.640Z,0.43
2022-07-31T14:49:26.943Z,0.30
2022-07-31T14:52:14.836Z,0.45
2022-07-31T14:54:42.746Z,0.22
2022-07-31T14:57:10.623Z,0.22
2022-07-31T14:59:38.530Z,0.30
2022-07-31T15:02:07.800Z,0.30
2022-07-31T15:04:35.733Z,0.43
2022-07-31T15:07:32.364Z,0.40
2022-07-31T15:09:51.555Z,0.43
2022-07-31T15:12:19.851Z,0.70
2022-07-31T15:14:47.720Z,0.40
2022-07-31T15:17:16.975Z,0.63
2022-07-31T15:19:44.875Z,0.30
2022-07-31T15:22:17.142Z,0.35
2022-07-31T15:24:48.343Z,0.38
2022-07-31T15:27:18.468Z,0.30
2022-07-31T15:30:03.794Z,0.32
2022-07-31T15:32:37.394Z,0.30
2022-07-31T15:37:36.414Z,0.32
2022-07-31T15:40:06.256Z,0.30
2022-07-31T15:42:37.535Z,0.22
2022-07-31T15:45:06.099Z,0.30
2022-07-31T15:47:33.944Z,0.20
2022-07-31T15:50:03.209Z,0.32
2022-07-31T15:52:31.234Z,0.45
2022-07-31T15:55:00.428Z,0.40
2022-07-31T15:57:28.409Z,0.20
2022-07-31T15:59:56.341Z,0.30
2022-07-31T16:02:24.712Z,0.22
2022-07-31T16:04:55.750Z,0.47
2022-07-31T16:08:30.114Z,0.30
2022-07-31T16:10:18.108Z,0.30
2022-07-31T16:15:15.221Z,0.22
2022-07-31T16:17:44.374Z,0.25
2022-07-31T16:20:20.868Z,0.30
2022-07-31T16:22:58.255Z,0.43
2022-07-31T16:25:27.406Z,0.17
2022-07-31T16:27:55.587Z,0.30
2022-07-31T16:30:26.185Z,0.15
2022-07-31T16:32:54.397Z,0.30
2022-07-31T16:35:22.707Z,0.10
2022-07-31T16:37:53.605Z,0.20
2022-07-31T16:40:29.007Z,0.30
2022-07-31T16:43:00.887Z,0.20
2022-07-31T16:45:29.406Z,0.10
2022-07-31T16:47:57.339Z,0.30
2022-07-31T16:50:25.419Z,0.15
2022-07-31T16:52:55.011Z,0.30
2022-07-31T16:55:59.461Z,0.20
2022-07-31T17:00:42.044Z,0.17
2022-07-31T17:04:02.131Z,0.47
2022-07-31T17:05:58.175Z,0.20
2022-07-31T17:08:26.094Z,0.28
2022-07-31T17:10:55.273Z,0.20
2022-07-31T17:13:23.581Z,0.25
2022-07-31T17:15:51.641Z,0.17
2022-07-31T17:18:24.810Z,0.20
2022-07-31T17:20:55.649Z,0.30
2022-07-31T17:23:42.938Z,0.40
2022-07-31T17:26:21.529Z,0.15
2022-07-31T17:28:50.460Z,0.20
2022-07-31T17:31:18.532Z,0.40
2022-07-31T17:33:58.414Z,0.30
2022-07-31T17:36:28.416Z,0.20
2022-07-31T17:38:56.340Z,0.20
2022-07-31T17:41:26.170Z,0.30
2022-07-31T17:43:54.433Z,0.20
2022-07-31T17:46:29.948Z,0.30
2022-07-31T17:49:05.758Z,0.30
2022-07-31T17:51:34.037Z,0.20
2022-07-31T17:54:02.050Z,0.20
2022-07-31T17:56:31.379Z,0.38
2022-07-31T17:59:04.438Z,0.20
2022-07-31T18:01:33.408Z,0.10
2022-07-31T18:04:01.962Z,0.30
2022-07-31T18:06:30.198Z,0.30
2022-07-31T18:08:59.997Z,0.30
2022-07-31T18:11:28.567Z,0.28
2022-07-31T18:14:03.004Z,0.30
2022-07-31T18:16:31.570Z,0.13
2022-07-31T18:18:59.458Z,0.40
2022-07-31T18:21:27.372Z,0.35
2022-07-31T18:23:55.221Z,0.20
2022-07-31T18:26:23.644Z,0.30
2022-07-31T18:28:51.545Z,0.50
2022-07-31T18:31:32.063Z,0.22
2022-07-31T18:34:03.951Z,0.30
2022-07-31T18:36:32.535Z,0.30
2022-07-31T18:39:00.455Z,0.30
2022-07-31T18:41:29.554Z,0.30
2022-07-31T18:43:57.720Z,0.30
2022-07-31T18:46:27.338Z,0.40
2022-07-31T18:48:56.678Z,0.10
2022-07-31T18:51:25.391Z,0.30
2022-07-31T18:53:54.362Z,0.40
2022-07-31T18:56:23.347Z,0.22
2022-07-31T18:58:51.370Z,0.30
2022-07-31T19:01:19.352Z,0.30
2022-07-31T19:03:48.842Z,0.20
2022-07-31T19:06:16.981Z,0.30
2022-07-31T19:08:45.975Z,0.30
2022-07-31T19:11:13.845Z,0.38
2022-07-31T19:13:41.727Z,0.17
2022-07-31T19:16:09.657Z,0.22
2022-07-31T19:18:40.218Z,0.43
2022-07-31T19:21:21.355Z,0.40
2022-07-31T19:23:52.042Z,0.38
2022-07-31T19:26:20.212Z,0.32
2022-07-31T19:28:48.121Z,0.30
2022-07-31T19:31:16.109Z,0.50
2022-07-31T19:33:44.021Z,0.28
2022-07-31T19:36:15.252Z,0.45
2022-07-31T19:38:44.314Z,0.38
2022-07-31T19:41:13.674Z,0.45
2022-07-31T19:43:41.557Z,0.30
2022-07-31T19:46:12.276Z,0.50
2022-07-31T19:48:41.226Z,0.30
2022-07-31T19:51:09.460Z,0.30
2022-07-31T19:53:39.257Z,0.30
2022-07-31T19:56:07.365Z,0.30
2022-07-31T19:58:35.843Z,0.30
2022-07-31T20:01:04.582Z,0.60
2022-07-31T20:03:32.867Z,0.43
2022-07-31T20:06:01.082Z,0.22
2022-07-31T20:08:29.792Z,0.35
2022-07-31T20:11:04.416Z,0.30
2022-07-31T20:13:34.020Z,0.65
2022-07-31T20:16:02.753Z,0.50
2022-07-31T20:18:31.058Z,0.30
2022-07-31T20:21:01.562Z,0.60
2022-07-31T20:23:29.539Z,0.40
2022-07-31T20:25:57.696Z,0.30
2022-07-31T20:28:28.312Z,0.40
2022-07-31T20:30:56.535Z,0.47
2022-07-31T20:33:24.541Z,0.30
2022-07-31T20:35:52.638Z,0.40
2022-07-31T20:38:21.187Z,0.30
2022-07-31T20:40:53.380Z,0.60
2022-07-31T20:43:23.900Z,0.38
2022-07-31T20:45:54.074Z,0.30
2022-07-31T20:48:24.225Z,0.55
2022-07-31T20:50:52.681Z,0.70
2022-07-31T20:53:22.002Z,0.45
2022-07-31T20:55:50.465Z,0.22
2022-07-31T20:58:18.950Z,0.40
2022-07-31T21:00:47.428Z,0.57
2022-07-31T21:03:17.933Z,0.50
2022-07-31T21:05:46.307Z,0.40
2022-07-31T21:08:14.586Z,0.50
2022-07-31T21:10:42.511Z,0.50
2022-07-31T21:13:10.559Z,0.35
2022-07-31T21:15:44.183Z,0.50
2022-07-31T21:18:14.052Z,0.50
2022-07-31T21:20:52.143Z,0.50
2022-07-31T21:23:22.510Z,0.43
2022-07-31T21:25:50.921Z,0.50
2022-07-31T21:28:19.353Z,0.38
2022-07-31T21:30:47.714Z,0.40
2022-07-31T21:33:15.825Z,0.40
2022-07-31T21:35:45.775Z,0.50
2022-07-31T21:38:15.194Z,0.30
2022-07-31T21:40:43.940Z,0.50
2022-07-31T21:43:15.454Z,0.40
2022-07-31T21:45:55.007Z,0.60
2022-07-31T21:48:26.757Z,0.40
2022-07-31T21:50:56.680Z,0.60
2022-07-31T21:53:25.394Z,0.57
2022-07-31T21:55:53.312Z,0.65
2022-07-31T21:58:21.242Z,0.40
2022-07-31T22:00:49.305Z,0.50
2022-07-31T22:03:17.247Z,0.60
2022-07-31T22:06:02.476Z,0.50
2022-07-31T22:08:31.735Z,0.40
2022-07-31T22:10:59.659Z,0.57
2022-07-31T22:13:27.542Z,0.50
2022-07-31T22:16:00.325Z,0.63
2022-07-31T22:18:29.855Z,0.30
2022-07-31T22:20:58.171Z,0.45
2022-07-31T22:23:27.317Z,0.47
2022-07-31T22:25:56.994Z,0.38
2022-07-31T22:28:26.757Z,0.60
2022-07-31T22:30:55.293Z,0.43
2022-07-31T22:33:23.911Z,0.77
2022-07-31T22:35:58.566Z,0.50
2022-07-31T22:38:30.127Z,0.57
2022-07-31T22:41:00.533Z,0.60
2022-07-31T22:44:09.405Z,0.50
2022-07-31T22:46:16.744Z,0.50
2022-07-31T22:48:46.201Z,0.55
2022-07-31T22:51:15.268Z,0.60
2022-07-31T22:53:43.936Z,0.60
2022-07-31T22:56:13.246Z,0.60
2022-07-31T22:58:41.144Z,0.38
2022-07-31T23:01:09.058Z,0.50
2022-07-31T23:03:36.957Z,0.50
2022-07-31T23:06:31.188Z,0.60
2022-07-31T23:08:54.507Z,0.60
2022-07-31T23:11:25.430Z,0.63
2022-07-31T23:13:53.356Z,0.68
2022-07-31T23:16:21.974Z,0.52
2022-07-31T23:18:50.383Z,0.65
2022-07-31T23:21:18.528Z,0.45
2022-07-31T23:23:48.584Z,0.60
2022-07-31T23:28:46.949Z,0.40
2022-07-31T23:31:15.161Z,0.52
2022-07-31T23:33:43.531Z,0.63
2022-07-31T23:36:11.461Z,0.50
2022-07-31T23:38:39.406Z,0.40
2022-07-31T23:41:07.361Z,0.40
2022-07-31T23:43:34.671Z,0.50
2022-07-31T23:46:03.965Z,0.40
2022-07-31T23:48:33.026Z,0.40
2022-07-31T23:51:00.960Z,0.30
2022-07-31T23:53:28.791Z,0.40
2022-07-31T23:55:56.694Z,0.57
2022-07-31T23:58:24.540Z,0.57
